createdAt,value
2022-08-22T00:00:18.779Z,42.59
2022-08-22T00:03:11.736Z,41.63
2022-08-22T00:03:12.459Z,40.00
2022-08-22T00:06:04.138Z,41.88
2022-08-22T00:08:33.647Z,41.68
2022-08-22T00:11:14.902Z,42.14
2022-08-22T00:13:52.676Z,42.42
2022-08-22T00:16:51.384Z,42.04
2022-08-22T00:19:22.903Z,42.62
2022-08-22T00:22:07.647Z,42.15
2022-08-22T00:24:46.517Z,42.46
2022-08-22T00:27:20.871Z,42.52
2022-08-22T00:29:54.192Z,42.35
2022-08-22T00:32:39.997Z,42.60
2022-08-22T00:35:46.062Z,42.22
2022-08-22T00:38:29.267Z,42.57
2022-08-22T00:40:58.727Z,41.83
2022-08-22T00:43:54.144Z,42.09
2022-08-22T00:46:20.610Z,42.27
2022-08-22T00:49:30.220Z,41.98
2022-08-22T00:52:30.095Z,42.12
2022-08-22T00:55:21.933Z,42.40
2022-08-22T00:58:02.791Z,43.23
2022-08-22T01:00:35.261Z,43.02
2022-08-22T01:03:32.259Z,43.21
2022-08-22T01:06:39.780Z,44.10
2022-08-22T01:09:43.758Z,43.27
2022-08-22T01:12:30.160Z,43.86
2022-08-22T01:15:08.637Z,42.77
2022-08-22T01:18:05.233Z,43.56
2022-08-22T01:21:16.670Z,43.05
2022-08-22T01:24:22.507Z,43.35
2022-08-22T01:27:09.351Z,44.02
2022-08-22T01:29:58.463Z,43.42
2022-08-22T01:32:31.853Z,43.11
2022-08-22T01:34:58.312Z,43.28
2022-08-22T01:38:06.121Z,43.12
2022-08-22T01:40:53.765Z,43.51
2022-08-22T01:44:00.058Z,43.45
2022-08-22T01:46:35.121Z,43.14
2022-08-22T01:49:37.046Z,43.37
2022-08-22T01:52:18.748Z,43.59
2022-08-22T01:55:09.007Z,43.55
2022-08-22T01:57:50.135Z,44.01
2022-08-22T02:00:20.362Z,43.97
2022-08-22T02:03:27.278Z,43.69
2022-08-22T02:06:08.382Z,44.06
2022-08-22T02:08:53.819Z,44.11
2022-08-22T02:11:57.043Z,44.40
2022-08-22T02:14:42.501Z,44.32
2022-08-22T02:17:27.507Z,44.20
2022-08-22T02:20:28.676Z,44.36
2022-08-22T02:23:14.948Z,44.25
2022-08-22T02:26:06.785Z,44.89
2022-08-22T02:28:56.720Z,45.13
2022-08-22T02:31:36.905Z,44.61
2022-08-22T02:34:26.344Z,44.50
2022-08-22T02:37:04.938Z,44.91
2022-08-22T02:39:39.554Z,45.87
2022-08-22T02:42:27.577Z,45.16
2022-08-22T02:45:11.988Z,45.58
2022-08-22T02:48:04.715Z,45.90
2022-08-22T02:51:01.745Z,46.51
2022-08-22T02:53:55.984Z,46.17
2022-08-22T02:56:37.165Z,46.55
2022-08-22T02:59:30.571Z,46.49
2022-08-22T03:01:58.507Z,46.21
2022-08-22T03:04:31.019Z,46.80
2022-08-22T03:07:32.107Z,46.76
2022-08-22T03:10:23.347Z,46.52
2022-08-22T03:13:00.994Z,46.15
2022-08-22T03:15:40.168Z,45.93
2022-08-22T03:18:32.854Z,46.57
2022-08-22T03:21:24.167Z,46.73
2022-08-22T03:24:01.135Z,46.69
2022-08-22T03:26:33.293Z,47.34
2022-08-22T03:29:07.802Z,47.37
2022-08-22T03:31:36.516Z,47.87
2022-08-22T03:34:23.723Z,47.62
2022-08-22T03:37:06.646Z,47.58
2022-08-22T03:40:05.370Z,48.05
2022-08-22T03:43:22.463Z,47.84
2022-08-22T03:46:26.602Z,47.86
2022-08-22T03:49:45.857Z,48.66
2022-08-22T03:52:41.032Z,48.30
2022-08-22T03:55:55.458Z,48.30
2022-08-22T03:58:43.002Z,48.48
2022-08-22T04:01:40.640Z,48.07
2022-08-22T04:04:25.827Z,48.68
2022-08-22T04:07:32.160Z,48.58
2022-08-22T04:10:39.016Z,47.95
2022-08-22T04:13:31.984Z,48.41
2022-08-22T04:16:28.397Z,48.75
2022-08-22T04:19:03.846Z,48.62
2022-08-22T04:22:02.207Z,48.48
2022-08-22T04:24:52.108Z,48.59
2022-08-22T04:27:54.275Z,48.57
2022-08-22T04:31:01.296Z,47.96
2022-08-22T04:33:54.349Z,47.91
2022-08-22T04:36:30.400Z,48.45
2022-08-22T04:39:07.366Z,48.35
2022-08-22T04:42:31.239Z,48.46
2022-08-22T04:45:06.094Z,48.19
2022-08-22T04:47:54.213Z,49.76
2022-08-22T04:50:42.985Z,49.81
2022-08-22T04:53:25.354Z,50.59
2022-08-22T04:56:07.950Z,50.04
2022-08-22T04:58:57.895Z,50.21
2022-08-22T05:01:44.882Z,51.11
2022-08-22T05:04:23.389Z,50.96
2022-08-22T05:06:57.373Z,50.03
2022-08-22T05:09:33.758Z,50.39
2022-08-22T05:12:06.837Z,50.21
2022-08-22T05:14:44.653Z,49.96
2022-08-22T05:17:17.751Z,49.71
2022-08-22T05:19:53.221Z,49.78
2022-08-22T05:22:28.649Z,49.95
2022-08-22T05:25:05.492Z,49.73
2022-08-22T05:27:38.951Z,49.76
2022-08-22T05:30:13.806Z,49.71
2022-08-22T05:32:56.049Z,49.31
2022-08-22T05:35:50.215Z,49.82
2022-08-22T05:38:25.734Z,49.88
2022-08-22T05:41:21.355Z,49.87
2022-08-22T05:43:49.968Z,49.67
2022-08-22T05:46:34.695Z,49.89
2022-08-22T05:49:05.565Z,49.57
2022-08-22T05:51:55.045Z,49.03
2022-08-22T05:54:34.255Z,49.37
2022-08-22T05:57:25.402Z,48.10
2022-08-22T06:00:06.078Z,48.55
2022-08-22T06:03:04.598Z,48.78
2022-08-22T06:05:38.448Z,48.56
2022-08-22T06:08:33.038Z,48.60
2022-08-22T06:11:17.272Z,48.38
2022-08-22T06:13:55.595Z,48.72
2022-08-22T06:16:39.891Z,47.85
2022-08-22T06:19:19.431Z,48.47
2022-08-22T06:21:50.980Z,47.90
2022-08-22T06:24:26.951Z,47.30
2022-08-22T06:27:01.959Z,47.40
2022-08-22T06:29:36.730Z,46.87
2022-08-22T06:32:14.140Z,46.58
2022-08-22T06:34:46.100Z,45.35
2022-08-22T06:37:27.846Z,44.55
2022-08-22T06:39:56.962Z,45.53
2022-08-22T06:42:34.218Z,46.40
2022-08-22T06:45:12.013Z,46.15
2022-08-22T06:47:44.383Z,46.02
2022-08-22T06:50:28.788Z,46.11
2022-08-22T06:53:05.618Z,46.86
2022-08-22T06:55:38.465Z,48.95
2022-08-22T06:58:18.391Z,48.81
2022-08-22T07:00:51.629Z,48.62
2022-08-22T07:03:51.661Z,48.55
2022-08-22T07:06:34.969Z,48.74
2022-08-22T07:09:06.757Z,48.88
2022-08-22T07:11:39.310Z,48.26
2022-08-22T07:14:10.777Z,47.77
2022-08-22T07:16:43.312Z,46.93
2022-08-22T07:19:48.166Z,47.46
2022-08-22T07:22:21.918Z,46.60
2022-08-22T07:24:54.584Z,46.58
2022-08-22T07:27:54.840Z,46.47
2022-08-22T07:30:27.440Z,46.05
2022-08-22T07:33:23.612Z,47.10
2022-08-22T07:36:05.277Z,46.92
2022-08-22T07:38:46.394Z,45.74
2022-08-22T07:41:19.868Z,45.65
2022-08-22T07:43:56.939Z,45.17
2022-08-22T07:46:23.472Z,45.04
2022-08-22T07:49:16.862Z,44.96
2022-08-22T07:51:48.453Z,45.35
2022-08-22T07:54:27.114Z,45.61
2022-08-22T07:57:06.584Z,45.14
2022-08-22T07:59:37.385Z,44.35
2022-08-22T08:02:10.701Z,43.81
2022-08-22T08:04:41.245Z,43.50
2022-08-22T08:07:13.729Z,43.79
2022-08-22T08:09:45.720Z,44.69
2022-08-22T08:12:15.964Z,44.28
2022-08-22T08:14:49.571Z,44.60
2022-08-22T08:17:30.028Z,44.61
2022-08-22T08:20:05.939Z,44.22
2022-08-22T08:22:34.164Z,43.87
2022-08-22T08:25:02.825Z,43.51
2022-08-22T08:27:35.256Z,43.68
2022-08-22T08:30:15.727Z,43.68
2022-08-22T08:32:48.530Z,43.33
2022-08-22T08:35:25.554Z,44.02
2022-08-22T08:38:02.223Z,43.52
2022-08-22T08:40:31.563Z,43.62
2022-08-22T08:43:10.988Z,43.78
2022-08-22T08:46:23.808Z,44.37
2022-08-22T08:49:10.936Z,44.28
2022-08-22T08:52:06.686Z,43.72
2022-08-22T08:54:53.529Z,43.84
2022-08-22T08:57:56.606Z,44.19
2022-08-22T09:00:49.047Z,45.02
2022-08-22T09:03:37.463Z,45.46
2022-08-22T09:06:34.259Z,45.77
2022-08-22T09:09:23.288Z,46.11
2022-08-22T09:12:15.012Z,46.87
2022-08-22T09:15:11.818Z,46.97
2022-08-22T09:18:14.549Z,46.93
2022-08-22T09:21:00.089Z,46.43
2022-08-22T09:23:44.964Z,46.39
2022-08-22T09:26:20.211Z,46.13
2022-08-22T09:29:29.066Z,45.98
2022-08-22T09:32:21.392Z,45.71
2022-08-22T09:35:25.786Z,46.27
2022-08-22T09:38:21.673Z,46.54
2022-08-22T09:41:14.288Z,46.74
2022-08-22T09:44:05.639Z,47.86
2022-08-22T09:46:54.006Z,47.63
2022-08-22T09:49:38.065Z,47.69
2022-08-22T09:52:33.948Z,46.95
2022-08-22T09:55:33.810Z,46.45
2022-08-22T09:58:19.868Z,45.72
2022-08-22T10:01:26.023Z,45.42
2022-08-22T10:04:14.643Z,45.53
2022-08-22T10:07:11.148Z,44.72
2022-08-22T10:10:09.661Z,43.78
2022-08-22T10:12:58.361Z,43.66
2022-08-22T10:15:45.730Z,43.71
2022-08-22T10:18:24.946Z,44.17
2022-08-22T10:20:58.387Z,43.95
2022-08-22T10:23:40.568Z,43.99
2022-08-22T10:26:42.876Z,44.80
2022-08-22T10:29:37.572Z,44.70
2022-08-22T10:32:43.563Z,44.66
2022-08-22T10:35:34.453Z,43.72
2022-08-22T10:38:44.209Z,43.57
2022-08-22T10:42:00.881Z,42.99
2022-08-22T10:45:04.458Z,43.81
2022-08-22T10:47:43.038Z,43.08
2022-08-22T10:50:21.501Z,43.14
2022-08-22T10:52:54.900Z,42.77
2022-08-22T10:55:27.408Z,42.37
2022-08-22T10:58:08.135Z,42.49
2022-08-22T11:00:58.337Z,42.74
2022-08-22T11:03:40.052Z,42.53
2022-08-22T11:06:14.511Z,42.68
2022-08-22T11:08:50.119Z,42.58
2022-08-22T11:11:32.675Z,43.03
2022-08-22T11:14:29.470Z,42.52
2022-08-22T11:17:35.535Z,42.87
2022-08-22T11:20:25.767Z,42.54
2022-08-22T11:23:34.265Z,41.40
2022-08-22T11:26:33.769Z,40.68
2022-08-22T11:29:25.813Z,38.92
2022-08-22T11:32:20.510Z,37.79
2022-08-22T11:34:59.393Z,37.91
2022-08-22T11:38:01.211Z,40.21
2022-08-22T11:40:38.460Z,41.43
2022-08-22T11:43:12.092Z,42.12
2022-08-22T11:45:53.542Z,41.22
2022-08-22T11:48:36.006Z,41.30
2022-08-22T11:51:17.565Z,34.05
2022-08-22T11:54:09.141Z,36.20
2022-08-22T11:56:48.451Z,33.08
2022-08-22T11:59:40.029Z,31.96
2022-08-22T12:02:21.325Z,37.06
2022-08-22T12:04:56.200Z,36.59
2022-08-22T12:07:36.919Z,35.67
2022-08-22T12:10:21.246Z,35.25
2022-08-22T12:13:04.147Z,30.14
2022-08-22T12:15:54.874Z,31.02
2022-08-22T12:18:45.033Z,30.60
2022-08-22T12:21:14.620Z,29.71
2022-08-22T12:23:49.339Z,34.77
2022-08-22T12:26:52.588Z,35.67
2022-08-22T12:29:45.299Z,33.26
2022-08-22T12:32:36.964Z,33.58
2022-08-22T12:35:13.907Z,33.05
2022-08-22T12:38:02.329Z,29.09
2022-08-22T12:40:52.638Z,28.93
2022-08-22T12:43:47.004Z,27.90
2022-08-22T12:46:24.244Z,27.64
2022-08-22T12:49:28.572Z,27.93
2022-08-22T12:52:15.511Z,28.08
2022-08-22T12:55:02.335Z,28.30
2022-08-22T12:58:00.509Z,27.17
2022-08-22T13:00:38.224Z,28.21
2022-08-22T13:03:10.955Z,28.19
2022-08-22T13:05:43.656Z,27.56
2022-08-22T13:08:27.437Z,28.53
2022-08-22T13:11:22.470Z,28.03
2022-08-22T13:13:56.496Z,25.88
2022-08-22T13:16:26.367Z,25.72
2022-08-22T13:18:59.090Z,25.59
2022-08-22T13:21:34.918Z,24.31
2022-08-22T13:24:38.625Z,25.25
2022-08-22T13:27:20.407Z,29.99
2022-08-22T13:30:01.811Z,30.81
2022-08-22T13:32:39.228Z,26.98
2022-08-22T13:35:30.492Z,26.04
2022-08-22T13:38:07.306Z,25.15
2022-08-22T13:40:45.273Z,25.88
2022-08-22T13:43:22.813Z,24.79
2022-08-22T13:46:22.035Z,24.04
2022-08-22T13:49:00.588Z,23.57
2022-08-22T13:51:50.021Z,22.60
2022-08-22T13:54:43.656Z,21.61
2022-08-22T13:57:27.451Z,20.61
2022-08-22T14:00:06.734Z,19.99
2022-08-22T14:03:05.354Z,19.86
2022-08-22T14:05:42.248Z,21.71
2022-08-22T14:08:18.734Z,21.42
2022-08-22T14:11:08.303Z,21.55
2022-08-22T14:13:46.923Z,22.10
2022-08-22T14:16:28.257Z,20.77
2022-08-22T14:19:00.956Z,19.97
2022-08-22T14:21:52.626Z,20.86
2022-08-22T14:24:25.474Z,18.99
2022-08-22T14:27:12.474Z,18.61
2022-08-22T14:29:50.462Z,18.22
2022-08-22T14:32:26.806Z,18.45
2022-08-22T14:35:23.353Z,18.28
2022-08-22T14:38:27.362Z,18.52
2022-08-22T14:41:05.305Z,18.28
2022-08-22T14:43:31.858Z,17.60
2022-08-22T14:46:12.262Z,17.98
2022-08-22T14:49:24.984Z,17.45
2022-08-22T14:52:29.537Z,17.74
2022-08-22T14:55:08.693Z,17.38
2022-08-22T14:57:45.099Z,18.32
2022-08-22T15:00:12.008Z,18.48
2022-08-22T15:02:40.997Z,18.52
2022-08-22T15:05:21.412Z,18.17
2022-08-22T15:07:55.736Z,19.27
2022-08-22T15:10:31.762Z,20.59
2022-08-22T15:13:05.121Z,21.37
2022-08-22T15:15:49.828Z,21.92
2022-08-22T15:18:30.048Z,21.41
2022-08-22T15:21:24.377Z,20.67
2022-08-22T15:23:55.831Z,20.46
2022-08-22T15:26:38.195Z,19.60
2022-08-22T15:29:16.646Z,20.27
2022-08-22T15:31:46.754Z,19.69
2022-08-22T15:34:24.187Z,19.22
2022-08-22T15:37:16.499Z,20.33
2022-08-22T15:40:08.151Z,20.31
2022-08-22T15:42:48.859Z,20.66
2022-08-22T15:45:33.955Z,20.70
2022-08-22T15:48:06.773Z,19.83
2022-08-22T15:50:55.787Z,20.29
2022-08-22T15:53:30.651Z,19.98
2022-08-22T15:56:05.093Z,21.79
2022-08-22T15:58:34.049Z,21.62
2022-08-22T16:01:20.825Z,21.54
2022-08-22T16:04:15.126Z,20.19
2022-08-22T16:06:57.091Z,20.28
2022-08-22T16:09:39.602Z,20.31
2022-08-22T16:12:24.379Z,20.69
2022-08-22T16:14:52.242Z,19.33
2022-08-22T16:17:24.792Z,19.58
2022-08-22T16:20:09.993Z,19.08
2022-08-22T16:22:58.128Z,18.85
2022-08-22T16:25:46.415Z,19.79
2022-08-22T16:28:57.844Z,19.35
2022-08-22T16:31:24.625Z,19.62
2022-08-22T16:33:51.390Z,20.02
2022-08-22T16:36:20.937Z,20.14
2022-08-22T16:38:52.044Z,20.47
2022-08-22T16:41:33.247Z,20.16
2022-08-22T16:44:22.698Z,20.29
2022-08-22T16:46:52.833Z,19.92
2022-08-22T16:49:30.921Z,18.79
2022-08-22T16:52:25.509Z,18.87
2022-08-22T16:55:02.421Z,19.08
2022-08-22T16:58:05.370Z,19.95
2022-08-22T17:01:12.121Z,20.21
2022-08-22T17:03:49.401Z,20.69
2022-08-22T17:06:22.889Z,20.33
2022-08-22T17:09:09.086Z,18.96
2022-08-22T17:11:56.101Z,18.88
2022-08-22T17:14:53.725Z,18.34
2022-08-22T17:17:46.516Z,18.89
2022-08-22T17:20:42.105Z,18.57
2022-08-22T17:23:41.905Z,19.10
2022-08-22T17:26:17.379Z,20.43
2022-08-22T17:28:57.715Z,21.01
2022-08-22T17:31:35.615Z,20.44
2022-08-22T17:34:02.117Z,20.68
2022-08-22T17:37:01.484Z,20.48
2022-08-22T17:40:03.445Z,21.53
2022-08-22T17:43:07.199Z,21.87
2022-08-22T17:46:02.843Z,23.42
2022-08-22T17:48:38.951Z,23.38
2022-08-22T17:51:33.054Z,24.55
2022-08-22T17:54:04.157Z,25.46
2022-08-22T17:57:05.861Z,26.51
2022-08-22T18:00:11.223Z,27.10
2022-08-22T18:02:50.069Z,27.60
2022-08-22T18:05:27.836Z,28.00
2022-08-22T18:11:38.943Z,29.13
2022-08-22T18:14:19.823Z,29.79
2022-08-22T18:16:50.456Z,30.21
2022-08-22T18:19:38.463Z,30.97
2022-08-22T18:22:22.509Z,31.28
2022-08-22T18:25:19.454Z,31.28
2022-08-22T18:27:59.730Z,31.89
2022-08-22T18:30:36.826Z,31.66
2022-08-22T18:33:31.611Z,32.91
2022-08-22T18:36:18.787Z,32.63
2022-08-22T18:38:54.356Z,33.02
2022-08-22T18:41:48.046Z,33.79
2022-08-22T18:44:25.623Z,34.27
2022-08-22T18:47:00.155Z,34.71
2022-08-22T18:49:26.581Z,34.86
2022-08-22T18:52:05.097Z,34.67
2022-08-22T18:55:10.617Z,34.89
2022-08-22T18:57:44.176Z,35.00
2022-08-22T19:00:19.363Z,35.24
2022-08-22T19:03:04.649Z,34.93
2022-08-22T19:06:05.382Z,35.09
2022-08-22T19:08:59.500Z,35.13
2022-08-22T19:11:44.805Z,34.85
2022-08-22T19:14:26.406Z,34.77
2022-08-22T19:17:25.451Z,34.66
2022-08-22T19:20:26.111Z,34.47
2022-08-22T19:23:32.211Z,34.43
2022-08-22T19:26:20.608Z,33.65
2022-08-22T19:28:47.751Z,33.64
2022-08-22T19:31:41.907Z,33.67
2022-08-22T19:34:13.379Z,33.67
2022-08-22T19:36:40.916Z,33.30
2022-08-22T19:39:31.910Z,33.45
2022-08-22T19:41:58.768Z,33.18
2022-08-22T19:44:25.450Z,33.54
2022-08-22T19:47:12.705Z,33.29
2022-08-22T19:49:45.092Z,33.56
2022-08-22T19:52:33.162Z,33.89
2022-08-22T19:55:36.994Z,33.16
2022-08-22T19:58:31.814Z,33.75
2022-08-22T20:01:34.319Z,33.42
2022-08-22T20:04:21.259Z,32.48
2022-08-22T20:06:59.980Z,32.46
2022-08-22T20:09:41.171Z,32.67
2022-08-22T20:12:29.439Z,32.20
2022-08-22T20:14:56.604Z,32.15
2022-08-22T20:17:25.915Z,32.48
2022-08-22T20:22:56.429Z,31.89
2022-08-22T20:25:43.899Z,32.28
2022-08-22T20:28:45.490Z,31.77
2022-08-22T20:31:21.444Z,31.62
2022-08-22T20:33:54.732Z,31.77
2022-08-22T20:36:28.914Z,31.74
2022-08-22T20:39:08.603Z,31.60
2022-08-22T20:41:40.600Z,31.52
2022-08-22T20:44:18.409Z,30.71
2022-08-22T20:47:02.126Z,30.55
2022-08-22T20:49:50.096Z,30.46
2022-08-22T20:52:19.656Z,31.10
2022-08-22T20:55:11.815Z,30.58
2022-08-22T20:57:55.016Z,30.36
2022-08-22T21:00:34.230Z,30.83
2022-08-22T21:03:44.827Z,30.71
2022-08-22T21:06:18.233Z,30.90
2022-08-22T21:08:46.538Z,30.53
2022-08-22T21:11:22.157Z,30.49
2022-08-22T21:13:48.900Z,30.78
2022-08-22T21:16:32.047Z,30.69
2022-08-22T21:19:00.564Z,31.14
2022-08-22T21:21:30.441Z,31.25
2022-08-22T21:24:01.556Z,30.74
2022-08-22T21:26:39.145Z,31.22
2022-08-22T21:29:08.371Z,32.03
2022-08-22T21:31:41.091Z,31.70
2022-08-22T21:34:18.934Z,31.29
2022-08-22T21:36:45.972Z,31.26
2022-08-22T21:39:28.352Z,31.19
2022-08-22T21:42:00.985Z,31.78
2022-08-22T21:44:30.502Z,31.01
2022-08-22T21:47:13.913Z,31.02
2022-08-22T21:50:05.863Z,30.74
2022-08-22T21:52:38.554Z,31.04
2022-08-22T21:55:26.315Z,30.89
2022-08-22T21:58:35.649Z,31.31
2022-08-22T22:01:30.273Z,31.48
2022-08-22T22:03:58.582Z,31.79
2022-08-22T22:06:26.302Z,31.25
2022-08-22T22:08:52.985Z,31.51
2022-08-22T22:11:19.545Z,31.44
2022-08-22T22:13:46.367Z,31.52
2022-08-22T22:16:13.218Z,31.90
2022-08-22T22:18:40.389Z,31.98
2022-08-22T22:21:07.229Z,32.02
2022-08-22T22:23:33.747Z,31.87
2022-08-22T22:26:03.520Z,31.90
2022-08-22T22:28:34.709Z,32.19
2022-08-22T22:31:01.382Z,32.59
2022-08-22T22:33:32.613Z,32.59
2022-08-22T22:36:07.957Z,32.93
2022-08-22T22:38:34.573Z,33.01
2022-08-22T22:41:01.108Z,33.33
2022-08-22T22:43:27.874Z,33.13
2022-08-22T22:45:54.434Z,33.54
2022-08-22T22:48:24.084Z,33.71
2022-08-22T22:50:52.477Z,34.11
2022-08-22T22:53:19.616Z,34.07
2022-08-22T22:55:46.666Z,33.49
2022-08-22T22:58:26.433Z,33.77
2022-08-22T23:00:53.096Z,33.40
2022-08-22T23:03:19.684Z,33.41
2022-08-22T23:05:46.224Z,33.76
2022-08-22T23:08:12.778Z,33.62
2022-08-22T23:10:39.339Z,34.13
2022-08-22T23:13:05.993Z,33.92
2022-08-22T23:15:32.714Z,34.26
2022-08-22T23:17:59.453Z,34.95
2022-08-22T23:20:26.124Z,34.65
2022-08-22T23:22:52.650Z,35.15
2022-08-22T23:25:19.252Z,35.32
2022-08-22T23:27:48.693Z,35.51
2022-08-22T23:30:19.667Z,35.15
2022-08-22T23:32:46.220Z,35.23
2022-08-22T23:35:12.739Z,35.46
2022-08-22T23:37:39.289Z,35.91
2022-08-22T23:40:06.462Z,36.24
2022-08-22T23:42:33.219Z,36.62
2022-08-22T23:44:59.795Z,36.77
2022-08-22T23:47:26.311Z,36.72
2022-08-22T23:49:52.803Z,37.05
2022-08-22T23:52:19.355Z,37.00
2022-08-22T23:54:45.867Z,37.25
2022-08-22T23:57:13.558Z,37.29
2022-08-22T23:59:46.436Z,37.27
